sensor_id;sensor_type;location;lat;lon;timestamp;P1;durP1;ratioP1;P2;durP2;ratioP2
78402;SDS011;67687;43.508;1.504;2023-04-25T00:09:22;6.43;;;2.92;;
78402;SDS011;67687;43.508;1.504;2023-04-25T00:12:06;6.67;;;3.20;;
78402;SDS011;67687;43.508;1.504;2023-04-25T00:18:23;8.10;;;3.13;;
78402;SDS011;67687;43.508;1.504;2023-04-25T00:24:25;6.63;;;2.88;;
78402;SDS011;67687;43.508;1.504;2023-04-25T00:27:23;6.87;;;3.20;;
78402;SDS011;67687;43.508;1.504;2023-04-25T01:00:13;4.43;;;1.70;;
78402;SDS011;67687;43.508;1.504;2023-04-25T01:09:22;4.18;;;1.48;;
78402;SDS011;67687;43.508;1.504;2023-04-25T01:12:02;3.35;;;1.38;;
78402;SDS011;67687;43.508;1.504;2023-04-25T01:14:50;6.30;;;1.30;;
78402;SDS011;67687;43.508;1.504;2023-04-25T01:27:37;2.75;;;1.05;;
78402;SDS011;67687;43.508;1.504;2023-04-25T01:30:06;3.20;;;1.03;;
78402;SDS011;67687;43.508;1.504;2023-04-25T01:39:31;2.70;;;0.80;;
78402;SDS011;67687;43.508;1.504;2023-04-25T01:48:08;3.13;;;0.70;;
78402;SDS011;67687;43.508;1.504;2023-04-25T01:50:39;2.60;;;0.90;;
78402;SDS011;67687;43.508;1.504;2023-04-25T01:53:16;3.00;;;0.90;;
78402;SDS011;67687;43.508;1.504;2023-04-25T01:55:47;2.20;;;0.60;;
78402;SDS011;67687;43.508;1.504;2023-04-25T01:58:16;2.40;;;0.70;;
78402;SDS011;67687;43.508;1.504;2023-04-25T02:04:15;2.85;;;0.80;;
78402;SDS011;67687;43.508;1.504;2023-04-25T02:06:44;2.60;;;0.80;;
78402;SDS011;67687;43.508;1.504;2023-04-25T02:09:44;2.20;;;0.80;;
78402;SDS011;67687;43.508;1.504;2023-04-25T02:12:12;2.20;;;0.60;;
78402;SDS011;67687;43.508;1.504;2023-04-25T02:15:02;3.47;;;0.60;;
78402;SDS011;67687;43.508;1.504;2023-04-25T02:17:33;2.55;;;0.70;;
78402;SDS011;67687;43.508;1.504;2023-04-25T02:20:03;2.45;;;0.68;;
78402;SDS011;67687;43.508;1.504;2023-04-25T02:22:47;2.00;;;0.70;;
78402;SDS011;67687;43.508;1.504;2023-04-25T02:25:19;2.50;;;0.70;;
78402;SDS011;67687;43.508;1.504;2023-04-25T02:27:53;2.20;;;0.70;;
78402;SDS011;67687;43.508;1.504;2023-04-25T02:30:24;1.90;;;0.50;;
78402;SDS011;67687;43.508;1.504;2023-04-25T02:32:58;2.80;;;0.70;;
78402;SDS011;67687;43.508;1.504;2023-04-25T02:35:30;2.05;;;0.47;;
78402;SDS011;67687;43.508;1.504;2023-04-25T02:38:00;2.10;;;0.43;;
78402;SDS011;67687;43.508;1.504;2023-04-25T02:40:28;2.20;;;0.50;;
78402;SDS011;67687;43.508;1.504;2023-04-25T02:43:05;1.85;;;0.40;;
78402;SDS011;67687;43.508;1.504;2023-04-25T02:45:32;2.25;;;0.60;;
78402;SDS011;67687;43.508;1.504;2023-04-25T02:51:25;2.10;;;0.60;;
78402;SDS011;67687;43.508;1.504;2023-04-25T02:53:53;2.10;;;0.70;;
78402;SDS011;67687;43.508;1.504;2023-04-25T02:56:20;3.65;;;0.40;;
78402;SDS011;67687;43.508;1.504;2023-04-25T02:58:48;2.75;;;0.50;;
78402;SDS011;67687;43.508;1.504;2023-04-25T03:04:13;2.67;;;0.60;;
78402;SDS011;67687;43.508;1.504;2023-04-25T03:10:22;2.20;;;0.60;;
78402;SDS011;67687;43.508;1.504;2023-04-25T03:13:04;2.50;;;0.45;;
78402;SDS011;67687;43.508;1.504;2023-04-25T03:15:46;2.10;;;0.60;;
78402;SDS011;67687;43.508;1.504;2023-04-25T03:18:48;2.10;;;0.60;;
78402;SDS011;67687;43.508;1.504;2023-04-25T03:24:13;2.63;;;0.60;;
78402;SDS011;67687;43.508;1.504;2023-04-25T03:26:47;2.03;;;0.50;;
78402;SDS011;67687;43.508;1.504;2023-04-25T03:29:30;2.88;;;0.50;;
78402;SDS011;67687;43.508;1.504;2023-04-25T03:32:06;2.20;;;0.40;;
78402;SDS011;67687;43.508;1.504;2023-04-25T03:34:36;2.20;;;0.50;;
78402;SDS011;67687;43.508;1.504;2023-04-25T03:37:07;2.17;;;0.60;;
78402;SDS011;67687;43.508;1.504;2023-04-25T03:39:34;3.58;;;0.80;;
78402;SDS011;67687;43.508;1.504;2023-04-25T03:42:04;2.13;;;0.50;;
78402;SDS011;67687;43.508;1.504;2023-04-25T03:44:32;2.47;;;0.70;;
78402;SDS011;67687;43.508;1.504;2023-04-25T03:46:58;2.22;;;0.73;;
78402;SDS011;67687;43.508;1.504;2023-04-25T03:49:25;2.17;;;0.50;;
78402;SDS011;67687;43.508;1.504;2023-04-25T03:51:55;2.40;;;0.70;;
78402;SDS011;67687;43.508;1.504;2023-04-25T03:54:41;3.00;;;0.73;;
78402;SDS011;67687;43.508;1.504;2023-04-25T03:57:28;2.70;;;0.67;;
78402;SDS011;67687;43.508;1.504;2023-04-25T04:00:05;2.17;;;0.70;;
78402;SDS011;67687;43.508;1.504;2023-04-25T04:02:43;2.90;;;0.60;;
78402;SDS011;67687;43.508;1.504;2023-04-25T04:05:11;2.15;;;0.63;;
78402;SDS011;67687;43.508;1.504;2023-04-25T04:11:00;3.33;;;0.80;;
78402;SDS011;67687;43.508;1.504;2023-04-25T04:13:36;2.08;;;0.60;;
78402;SDS011;67687;43.508;1.504;2023-04-25T04:16:04;2.03;;;0.70;;
78402;SDS011;67687;43.508;1.504;2023-04-25T04:18:36;2.30;;;0.60;;
78402;SDS011;67687;43.508;1.504;2023-04-25T04:21:10;2.20;;;0.60;;
78402;SDS011;67687;43.508;1.504;2023-04-25T04:24:07;3.33;;;0.70;;
78402;SDS011;67687;43.508;1.504;2023-04-25T04:26:35;2.30;;;0.80;;
78402;SDS011;67687;43.508;1.504;2023-04-25T04:29:15;1.92;;;0.60;;
78402;SDS011;67687;43.508;1.504;2023-04-25T04:31:49;2.63;;;0.95;;
78402;SDS011;67687;43.508;1.504;2023-04-25T04:34:18;2.40;;;0.68;;
78402;SDS011;67687;43.508;1.504;2023-04-25T04:40:51;3.08;;;0.80;;
78402;SDS011;67687;43.508;1.504;2023-04-25T04:43:19;2.60;;;0.57;;
78402;SDS011;67687;43.508;1.504;2023-04-25T04:46:11;3.58;;;0.75;;
78402;SDS011;67687;43.508;1.504;2023-04-25T04:48:39;2.72;;;0.80;;
78402;SDS011;67687;43.508;1.504;2023-04-25T04:51:19;2.43;;;1.10;;
78402;SDS011;67687;43.508;1.504;2023-04-25T04:54:18;2.45;;;0.90;;
78402;SDS011;67687;43.508;1.504;2023-04-25T04:56:45;2.40;;;0.93;;
78402;SDS011;67687;43.508;1.504;2023-04-25T05:05:16;3.33;;;0.70;;
78402;SDS011;67687;43.508;1.504;2023-04-25T05:08:05;2.40;;;0.80;;
78402;SDS011;67687;43.508;1.504;2023-04-25T05:10:34;2.97;;;0.95;;
78402;SDS011;67687;43.508;1.504;2023-04-25T05:13:16;3.20;;;1.10;;
78402;SDS011;67687;43.508;1.504;2023-04-25T05:15:53;2.60;;;1.10;;
78402;SDS011;67687;43.508;1.504;2023-04-25T05:21:56;2.60;;;0.93;;
78402;SDS011;67687;43.508;1.504;2023-04-25T05:27:55;2.75;;;0.80;;
78402;SDS011;67687;43.508;1.504;2023-04-25T05:30:49;2.92;;;1.20;;
78402;SDS011;67687;43.508;1.504;2023-04-25T05:33:46;2.83;;;1.03;;
78402;SDS011;67687;43.508;1.504;2023-04-25T05:36:16;4.32;;;1.13;;
78402;SDS011;67687;43.508;1.504;2023-04-25T05:38:44;3.05;;;1.30;;
78402;SDS011;67687;43.508;1.504;2023-04-25T05:41:28;3.08;;;1.20;;
78402;SDS011;67687;43.508;1.504;2023-04-25T05:43:59;4.20;;;1.10;;
78402;SDS011;67687;43.508;1.504;2023-04-25T05:46:35;3.47;;;1.30;;
78402;SDS011;67687;43.508;1.504;2023-04-25T05:49:16;3.53;;;1.10;;
78402;SDS011;67687;43.508;1.504;2023-04-25T05:52:00;3.42;;;1.35;;
78402;SDS011;67687;43.508;1.504;2023-04-25T05:54:27;4.53;;;1.30;;
78402;SDS011;67687;43.508;1.504;2023-04-25T05:56:57;3.08;;;1.23;;
78402;SDS011;67687;43.508;1.504;2023-04-25T05:59:29;5.13;;;1.47;;
78402;SDS011;67687;43.508;1.504;2023-04-25T06:01:58;2.97;;;1.30;;
78402;SDS011;67687;43.508;1.504;2023-04-25T06:04:27;3.28;;;1.40;;
78402;SDS011;67687;43.508;1.504;2023-04-25T06:10:26;3.53;;;1.20;;
78402;SDS011;67687;43.508;1.504;2023-04-25T06:13:07;4.00;;;1.27;;
78402;SDS011;67687;43.508;1.504;2023-04-25T06:15:39;2.70;;;1.30;;
78402;SDS011;67687;43.508;1.504;2023-04-25T06:18:38;4.15;;;1.20;;
78402;SDS011;67687;43.508;1.504;2023-04-25T06:21:22;3.53;;;1.20;;
78402;SDS011;67687;43.508;1.504;2023-04-25T06:24:09;3.15;;;1.08;;
78402;SDS011;67687;43.508;1.504;2023-04-25T06:26:40;2.93;;;1.00;;
78402;SDS011;67687;43.508;1.504;2023-04-25T06:29:07;2.80;;;1.10;;
78402;SDS011;67687;43.508;1.504;2023-04-25T06:31:36;3.00;;;0.95;;
78402;SDS011;67687;43.508;1.504;2023-04-25T06:34:06;3.00;;;1.10;;
78402;SDS011;67687;43.508;1.504;2023-04-25T06:36:39;2.78;;;1.00;;
78402;SDS011;67687;43.508;1.504;2023-04-25T06:39:18;4.50;;;1.10;;
78402;SDS011;67687;43.508;1.504;2023-04-25T06:41:45;2.70;;;1.10;;
78402;SDS011;67687;43.508;1.504;2023-04-25T06:44:13;3.63;;;1.00;;
78402;SDS011;67687;43.508;1.504;2023-04-25T06:46:40;2.83;;;1.10;;
78402;SDS011;67687;43.508;1.504;2023-04-25T06:49:07;3.80;;;1.20;;
78402;SDS011;67687;43.508;1.504;2023-04-25T06:51:43;4.43;;;1.10;;
78402;SDS011;67687;43.508;1.504;2023-04-25T06:54:27;2.65;;;1.00;;
78402;SDS011;67687;43.508;1.504;2023-04-25T06:56:57;3.30;;;1.10;;
78402;SDS011;67687;43.508;1.504;2023-04-25T07:02:33;2.95;;;1.20;;
78402;SDS011;67687;43.508;1.504;2023-04-25T07:04:59;3.10;;;1.30;;
78402;SDS011;67687;43.508;1.504;2023-04-25T07:07:29;2.90;;;1.27;;
78402;SDS011;67687;43.508;1.504;2023-04-25T07:09:57;2.70;;;1.20;;
78402;SDS011;67687;43.508;1.504;2023-04-25T07:12:23;2.88;;;0.98;;
78402;SDS011;67687;43.508;1.504;2023-04-25T07:14:50;5.95;;;1.45;;
78402;SDS011;67687;43.508;1.504;2023-04-25T07:17:20;3.00;;;1.00;;
78402;SDS011;67687;43.508;1.504;2023-04-25T07:19:53;3.78;;;1.20;;
78402;SDS011;67687;43.508;1.504;2023-04-25T07:22:20;3.00;;;1.20;;
78402;SDS011;67687;43.508;1.504;2023-04-25T07:24:47;2.83;;;1.15;;
78402;SDS011;67687;43.508;1.504;2023-04-25T07:27:15;3.65;;;1.23;;
78402;SDS011;67687;43.508;1.504;2023-04-25T07:29:42;2.80;;;1.13;;
78402;SDS011;67687;43.508;1.504;2023-04-25T07:32:11;2.60;;;1.00;;
78402;SDS011;67687;43.508;1.504;2023-04-25T07:34:39;3.40;;;1.30;;
78402;SDS011;67687;43.508;1.504;2023-04-25T07:37:06;3.15;;;1.00;;
78402;SDS011;67687;43.508;1.504;2023-04-25T07:39:33;3.35;;;1.25;;
78402;SDS011;67687;43.508;1.504;2023-04-25T07:42:00;4.33;;;1.10;;
78402;SDS011;67687;43.508;1.504;2023-04-25T07:44:29;3.80;;;1.20;;
78402;SDS011;67687;43.508;1.504;2023-04-25T07:47:17;3.72;;;1.20;;
78402;SDS011;67687;43.508;1.504;2023-04-25T07:50:07;4.15;;;1.40;;
78402;SDS011;67687;43.508;1.504;2023-04-25T07:52:55;3.53;;;1.20;;
78402;SDS011;67687;43.508;1.504;2023-04-25T07:55:27;2.93;;;1.20;;
78402;SDS011;67687;43.508;1.504;2023-04-25T07:57:55;3.15;;;1.30;;
78402;SDS011;67687;43.508;1.504;2023-04-25T08:00:39;3.55;;;1.40;;
78402;SDS011;67687;43.508;1.504;2023-04-25T08:03:09;3.42;;;0.80;;
78402;SDS011;67687;43.508;1.504;2023-04-25T08:05:36;2.08;;;0.55;;
78402;SDS011;67687;43.508;1.504;2023-04-25T08:08:06;2.20;;;0.60;;
78402;SDS011;67687;43.508;1.504;2023-04-25T08:10:38;2.35;;;0.75;;
78402;SDS011;67687;43.508;1.504;2023-04-25T08:13:05;3.35;;;0.65;;
78402;SDS011;67687;43.508;1.504;2023-04-25T08:15:32;3.53;;;0.80;;
78402;SDS011;67687;43.508;1.504;2023-04-25T08:21:15;3.00;;;0.70;;
78402;SDS011;67687;43.508;1.504;2023-04-25T08:23:44;2.08;;;0.70;;
78402;SDS011;67687;43.508;1.504;2023-04-25T08:26:10;2.58;;;0.95;;
78402;SDS011;67687;43.508;1.504;2023-04-25T08:28:37;3.40;;;0.80;;
78402;SDS011;67687;43.508;1.504;2023-04-25T08:31:04;2.85;;;0.88;;
78402;SDS011;67687;43.508;1.504;2023-04-25T08:33:31;4.03;;;0.83;;
78402;SDS011;67687;43.508;1.504;2023-04-25T08:35:58;2.38;;;0.90;;
78402;SDS011;67687;43.508;1.504;2023-04-25T08:38:26;2.80;;;0.90;;
78402;SDS011;67687;43.508;1.504;2023-04-25T08:40:53;2.60;;;0.90;;
78402;SDS011;67687;43.508;1.504;2023-04-25T08:43:21;2.80;;;0.90;;
78402;SDS011;67687;43.508;1.504;2023-04-25T08:45:49;2.37;;;0.73;;
78402;SDS011;67687;43.508;1.504;2023-04-25T08:48:18;2.30;;;0.80;;
78402;SDS011;67687;43.508;1.504;2023-04-25T08:50:47;2.83;;;0.90;;
78402;SDS011;67687;43.508;1.504;2023-04-25T08:53:17;2.78;;;0.90;;
78402;SDS011;67687;43.508;1.504;2023-04-25T08:55:47;2.80;;;1.00;;
78402;SDS011;67687;43.508;1.504;2023-04-25T08:58:15;4.03;;;0.80;;
78402;SDS011;67687;43.508;1.504;2023-04-25T09:00:41;2.63;;;0.90;;
78402;SDS011;67687;43.508;1.504;2023-04-25T09:03:10;3.83;;;1.10;;
78402;SDS011;67687;43.508;1.504;2023-04-25T09:05:37;3.80;;;0.90;;
78402;SDS011;67687;43.508;1.504;2023-04-25T09:08:07;2.63;;;1.00;;
78402;SDS011;67687;43.508;1.504;2023-04-25T09:10:40;2.60;;;1.00;;
78402;SDS011;67687;43.508;1.504;2023-04-25T09:13:31;2.92;;;1.17;;
78402;SDS011;67687;43.508;1.504;2023-04-25T09:16:01;3.33;;;1.30;;
78402;SDS011;67687;43.508;1.504;2023-04-25T09:18:32;3.00;;;1.45;;
78402;SDS011;67687;43.508;1.504;2023-04-25T09:21:12;2.80;;;0.98;;
78402;SDS011;67687;43.508;1.504;2023-04-25T09:24:33;3.50;;;0.90;;
78402;SDS011;67687;43.508;1.504;2023-04-25T09:27:25;3.33;;;1.25;;
78402;SDS011;67687;43.508;1.504;2023-04-25T09:33:47;2.70;;;1.10;;
78402;SDS011;67687;43.508;1.504;2023-04-25T09:37:12;3.38;;;1.23;;
78402;SDS011;67687;43.508;1.504;2023-04-25T09:40:22;2.77;;;0.80;;
78402;SDS011;67687;43.508;1.504;2023-04-25T09:43:24;3.22;;;0.85;;
78402;SDS011;67687;43.508;1.504;2023-04-25T09:46:32;2.08;;;0.80;;
78402;SDS011;67687;43.508;1.504;2023-04-25T09:52:36;2.65;;;0.80;;
78402;SDS011;67687;43.508;1.504;2023-04-25T09:58:23;1.95;;;0.68;;
78402;SDS011;67687;43.508;1.504;2023-04-25T10:01:03;2.42;;;0.60;;
78402;SDS011;67687;43.508;1.504;2023-04-25T10:03:53;2.40;;;0.60;;
78402;SDS011;67687;43.508;1.504;2023-04-25T10:10:36;2.30;;;0.80;;
78402;SDS011;67687;43.508;1.504;2023-04-25T10:13:30;2.45;;;0.80;;
78402;SDS011;67687;43.508;1.504;2023-04-25T10:16:23;2.65;;;0.80;;
78402;SDS011;67687;43.508;1.504;2023-04-25T10:18:58;2.45;;;0.93;;
78402;SDS011;67687;43.508;1.504;2023-04-25T10:21:26;2.63;;;0.90;;
78402;SDS011;67687;43.508;1.504;2023-04-25T10:24:04;2.80;;;1.10;;
78402;SDS011;67687;43.508;1.504;2023-04-25T10:26:44;3.20;;;1.08;;
78402;SDS011;67687;43.508;1.504;2023-04-25T10:29:11;2.85;;;0.85;;
78402;SDS011;67687;43.508;1.504;2023-04-25T10:31:45;3.13;;;0.80;;
78402;SDS011;67687;43.508;1.504;2023-04-25T10:34:13;2.75;;;0.93;;
78402;SDS011;67687;43.508;1.504;2023-04-25T10:36:40;3.07;;;0.73;;
78402;SDS011;67687;43.508;1.504;2023-04-25T10:39:07;3.60;;;0.90;;
78402;SDS011;67687;43.508;1.504;2023-04-25T10:44:22;2.80;;;1.17;;
78402;SDS011;67687;43.508;1.504;2023-04-25T10:46:52;2.90;;;0.98;;
78402;SDS011;67687;43.508;1.504;2023-04-25T10:49:41;1.97;;;0.80;;
78402;SDS011;67687;43.508;1.504;2023-04-25T10:52:38;2.97;;;0.80;;
78402;SDS011;67687;43.508;1.504;2023-04-25T10:55:49;3.30;;;0.90;;
78402;SDS011;67687;43.508;1.504;2023-04-25T11:02:17;3.85;;;1.00;;
78402;SDS011;67687;43.508;1.504;2023-04-25T11:04:56;2.67;;;0.93;;
78402;SDS011;67687;43.508;1.504;2023-04-25T11:07:38;2.30;;;0.88;;
78402;SDS011;67687;43.508;1.504;2023-04-25T11:10:12;4.15;;;0.90;;
78402;SDS011;67687;43.508;1.504;2023-04-25T11:13:15;2.60;;;0.88;;
78402;SDS011;67687;43.508;1.504;2023-04-25T11:16:44;2.75;;;1.05;;
78402;SDS011;67687;43.508;1.504;2023-04-25T11:19:12;3.40;;;1.00;;
78402;SDS011;67687;43.508;1.504;2023-04-25T11:21:39;2.50;;;1.10;;
78402;SDS011;67687;43.508;1.504;2023-04-25T11:24:05;3.38;;;1.40;;
78402;SDS011;67687;43.508;1.504;2023-04-25T11:26:35;3.05;;;0.85;;
78402;SDS011;67687;43.508;1.504;2023-04-25T11:29:02;2.72;;;1.17;;
78402;SDS011;67687;43.508;1.504;2023-04-25T11:31:29;2.37;;;0.90;;
78402;SDS011;67687;43.508;1.504;2023-04-25T11:33:56;2.63;;;0.60;;
78402;SDS011;67687;43.508;1.504;2023-04-25T11:36:25;2.92;;;1.10;;
78402;SDS011;67687;43.508;1.504;2023-04-25T11:38:52;2.80;;;1.40;;
78402;SDS011;67687;43.508;1.504;2023-04-25T11:41:20;3.15;;;1.10;;
78402;SDS011;67687;43.508;1.504;2023-04-25T11:43:47;3.90;;;1.20;;
78402;SDS011;67687;43.508;1.504;2023-04-25T11:46:17;2.70;;;0.80;;
78402;SDS011;67687;43.508;1.504;2023-04-25T11:48:48;2.50;;;0.70;;
78402;SDS011;67687;43.508;1.504;2023-04-25T11:51:16;2.25;;;0.90;;
78402;SDS011;67687;43.508;1.504;2023-04-25T11:53:54;2.15;;;0.65;;
78402;SDS011;67687;43.508;1.504;2023-04-25T11:56:22;2.70;;;1.00;;
78402;SDS011;67687;43.508;1.504;2023-04-25T11:59:36;2.50;;;1.00;;
78402;SDS011;67687;43.508;1.504;2023-04-25T12:06:02;3.30;;;1.45;;
78402;SDS011;67687;43.508;1.504;2023-04-25T12:25:52;3.25;;;1.40;;
78402;SDS011;67687;43.508;1.504;2023-04-25T12:28:24;3.27;;;1.20;;
78402;SDS011;67687;43.508;1.504;2023-04-25T12:31:15;3.78;;;1.15;;
78402;SDS011;67687;43.508;1.504;2023-04-25T12:33:44;3.20;;;1.40;;
78402;SDS011;67687;43.508;1.504;2023-04-25T12:36:14;3.40;;;1.60;;
78402;SDS011;67687;43.508;1.504;2023-04-25T12:38:42;3.00;;;1.40;;
78402;SDS011;67687;43.508;1.504;2023-04-25T12:41:20;3.93;;;1.80;;
78402;SDS011;67687;43.508;1.504;2023-04-25T12:43:51;3.95;;;1.80;;
78402;SDS011;67687;43.508;1.504;2023-04-25T12:46:23;4.50;;;2.15;;
78402;SDS011;67687;43.508;1.504;2023-04-25T12:49:05;5.30;;;2.42;;
78402;SDS011;67687;43.508;1.504;2023-04-25T12:51:33;5.07;;;2.60;;
78402;SDS011;67687;43.508;1.504;2023-04-25T12:54:01;4.33;;;2.10;;
78402;SDS011;67687;43.508;1.504;2023-04-25T12:56:32;3.40;;;1.63;;
78402;SDS011;67687;43.508;1.504;2023-04-25T12:59:02;5.07;;;1.63;;
78402;SDS011;67687;43.508;1.504;2023-04-25T13:01:29;3.28;;;1.60;;
78402;SDS011;67687;43.508;1.504;2023-04-25T13:03:59;3.67;;;1.80;;
78402;SDS011;67687;43.508;1.504;2023-04-25T13:06:26;2.90;;;1.60;;
78402;SDS011;67687;43.508;1.504;2023-04-25T13:08:55;2.92;;;1.40;;
78402;SDS011;67687;43.508;1.504;2023-04-25T13:11:22;3.15;;;1.50;;
78402;SDS011;67687;43.508;1.504;2023-04-25T13:13:50;4.28;;;1.80;;
78402;SDS011;67687;43.508;1.504;2023-04-25T13:16:19;4.68;;;1.98;;
78402;SDS011;67687;43.508;1.504;2023-04-25T13:18:47;5.20;;;1.80;;
78402;SDS011;67687;43.508;1.504;2023-04-25T13:21:14;4.93;;;1.75;;
78402;SDS011;67687;43.508;1.504;2023-04-25T13:23:41;3.88;;;1.90;;
78402;SDS011;67687;43.508;1.504;2023-04-25T13:26:09;4.80;;;2.00;;
78402;SDS011;67687;43.508;1.504;2023-04-25T13:28:37;3.72;;;1.90;;
78402;SDS011;67687;43.508;1.504;2023-04-25T13:31:07;3.87;;;1.70;;
78402;SDS011;67687;43.508;1.504;2023-04-25T13:33:33;3.83;;;1.70;;
78402;SDS011;67687;43.508;1.504;2023-04-25T13:36:01;3.17;;;1.70;;
78402;SDS011;67687;43.508;1.504;2023-04-25T13:38:39;3.30;;;1.95;;
78402;SDS011;67687;43.508;1.504;2023-04-25T13:41:08;3.40;;;1.90;;
78402;SDS011;67687;43.508;1.504;2023-04-25T13:43:36;3.27;;;1.80;;
78402;SDS011;67687;43.508;1.504;2023-04-25T13:46:03;3.03;;;1.55;;
78402;SDS011;67687;43.508;1.504;2023-04-25T13:48:31;3.55;;;1.90;;
78402;SDS011;67687;43.508;1.504;2023-04-25T13:50:58;3.72;;;2.10;;
78402;SDS011;67687;43.508;1.504;2023-04-25T13:53:25;3.80;;;2.10;;
78402;SDS011;67687;43.508;1.504;2023-04-25T13:55:51;3.80;;;2.03;;
78402;SDS011;67687;43.508;1.504;2023-04-25T13:58:18;3.40;;;1.50;;
78402;SDS011;67687;43.508;1.504;2023-04-25T14:00:45;3.40;;;1.77;;
78402;SDS011;67687;43.508;1.504;2023-04-25T14:03:14;3.90;;;2.38;;
78402;SDS011;67687;43.508;1.504;2023-04-25T14:05:42;4.80;;;2.15;;
78402;SDS011;67687;43.508;1.504;2023-04-25T14:08:09;3.80;;;2.10;;
78402;SDS011;67687;43.508;1.504;2023-04-25T14:10:36;3.53;;;2.17;;
78402;SDS011;67687;43.508;1.504;2023-04-25T14:13:04;4.45;;;1.90;;
78402;SDS011;67687;43.508;1.504;2023-04-25T14:15:32;6.57;;;2.35;;
78402;SDS011;67687;43.508;1.504;2023-04-25T14:17:59;3.75;;;1.90;;
78402;SDS011;67687;43.508;1.504;2023-04-25T14:20:27;3.73;;;2.50;;
78402;SDS011;67687;43.508;1.504;2023-04-25T14:22:59;3.80;;;1.52;;
78402;SDS011;67687;43.508;1.504;2023-04-25T14:25:28;3.78;;;1.63;;
78402;SDS011;67687;43.508;1.504;2023-04-25T14:27:56;2.97;;;1.30;;
78402;SDS011;67687;43.508;1.504;2023-04-25T14:30:34;4.40;;;1.70;;
78402;SDS011;67687;43.508;1.504;2023-04-25T14:33:06;2.97;;;1.43;;
78402;SDS011;67687;43.508;1.504;2023-04-25T14:36:08;3.40;;;1.58;;
78402;SDS011;67687;43.508;1.504;2023-04-25T14:38:42;3.88;;;1.70;;
78402;SDS011;67687;43.508;1.504;2023-04-25T14:51:17;2.58;;;1.10;;
78402;SDS011;67687;43.508;1.504;2023-04-25T15:01:23;3.50;;;1.20;;
78402;SDS011;67687;43.508;1.504;2023-04-25T15:08:25;3.85;;;1.27;;
78402;SDS011;67687;43.508;1.504;2023-04-25T15:10:53;3.42;;;1.40;;
78402;SDS011;67687;43.508;1.504;2023-04-25T15:13:20;5.07;;;1.80;;
78402;SDS011;67687;43.508;1.504;2023-04-25T15:15:47;3.00;;;1.50;;
78402;SDS011;67687;43.508;1.504;2023-04-25T15:18:17;3.10;;;1.60;;
78402;SDS011;67687;43.508;1.504;2023-04-25T15:20:46;3.22;;;1.80;;
78402;SDS011;67687;43.508;1.504;2023-04-25T15:23:15;3.72;;;1.65;;
78402;SDS011;67687;43.508;1.504;2023-04-25T15:28:57;4.38;;;1.63;;
78402;SDS011;67687;43.508;1.504;2023-04-25T15:31:24;4.20;;;1.87;;
78402;SDS011;67687;43.508;1.504;2023-04-25T15:33:51;3.30;;;1.85;;
78402;SDS011;67687;43.508;1.504;2023-04-25T15:36:17;3.28;;;1.52;;
78402;SDS011;67687;43.508;1.504;2023-04-25T15:38:46;3.15;;;1.73;;
78402;SDS011;67687;43.508;1.504;2023-04-25T15:41:25;4.05;;;1.70;;
78402;SDS011;67687;43.508;1.504;2023-04-25T15:43:52;4.77;;;1.30;;
78402;SDS011;67687;43.508;1.504;2023-04-25T15:46:25;4.32;;;1.33;;
78402;SDS011;67687;43.508;1.504;2023-04-25T15:48:52;2.78;;;1.20;;
78402;SDS011;67687;43.508;1.504;2023-04-25T15:51:19;2.80;;;1.27;;
78402;SDS011;67687;43.508;1.504;2023-04-25T15:53:46;2.80;;;1.30;;
78402;SDS011;67687;43.508;1.504;2023-04-25T15:56:13;4.67;;;1.40;;
78402;SDS011;67687;43.508;1.504;2023-04-25T15:58:40;2.95;;;1.10;;
78402;SDS011;67687;43.508;1.504;2023-04-25T16:01:06;2.78;;;1.20;;
78402;SDS011;67687;43.508;1.504;2023-04-25T16:03:34;3.88;;;1.48;;
78402;SDS011;67687;43.508;1.504;2023-04-25T16:06:01;4.00;;;1.38;;
78402;SDS011;67687;43.508;1.504;2023-04-25T16:08:28;3.50;;;1.40;;
78402;SDS011;67687;43.508;1.504;2023-04-25T16:10:58;3.40;;;1.30;;
78402;SDS011;67687;43.508;1.504;2023-04-25T16:13:25;4.15;;;1.60;;
78402;SDS011;67687;43.508;1.504;2023-04-25T16:15:53;5.40;;;1.83;;
78402;SDS011;67687;43.508;1.504;2023-04-25T16:18:20;3.75;;;1.83;;
78402;SDS011;67687;43.508;1.504;2023-04-25T16:20:48;3.70;;;2.20;;
78402;SDS011;67687;43.508;1.504;2023-04-25T16:23:15;3.53;;;1.83;;
78402;SDS011;67687;43.508;1.504;2023-04-25T16:25:42;3.80;;;2.13;;
78402;SDS011;67687;43.508;1.504;2023-04-25T16:28:09;4.05;;;2.10;;
78402;SDS011;67687;43.508;1.504;2023-04-25T16:30:36;4.63;;;2.35;;
78402;SDS011;67687;43.508;1.504;2023-04-25T16:33:03;5.40;;;2.50;;
78402;SDS011;67687;43.508;1.504;2023-04-25T16:35:30;5.57;;;2.65;;
78402;SDS011;67687;43.508;1.504;2023-04-25T16:37:58;6.60;;;3.35;;
78402;SDS011;67687;43.508;1.504;2023-04-25T16:40:25;8.25;;;4.00;;
78402;SDS011;67687;43.508;1.504;2023-04-25T16:42:52;6.28;;;3.92;;
78402;SDS011;67687;43.508;1.504;2023-04-25T16:45:19;7.00;;;4.13;;
78402;SDS011;67687;43.508;1.504;2023-04-25T16:47:46;6.25;;;4.00;;
78402;SDS011;67687;43.508;1.504;2023-04-25T16:50:12;5.07;;;2.60;;
78402;SDS011;67687;43.508;1.504;2023-04-25T16:52:39;5.13;;;2.40;;
78402;SDS011;67687;43.508;1.504;2023-04-25T16:55:08;4.18;;;2.13;;
78402;SDS011;67687;43.508;1.504;2023-04-25T16:57:34;4.70;;;2.00;;
78402;SDS011;67687;43.508;1.504;2023-04-25T17:00:02;5.18;;;2.47;;
78402;SDS011;67687;43.508;1.504;2023-04-25T17:02:29;4.95;;;2.70;;
78402;SDS011;67687;43.508;1.504;2023-04-25T17:04:56;5.28;;;2.85;;
78402;SDS011;67687;43.508;1.504;2023-04-25T17:07:23;6.78;;;3.00;;
78402;SDS011;67687;43.508;1.504;2023-04-25T17:09:49;6.33;;;4.60;;
78402;SDS011;67687;43.508;1.504;2023-04-25T17:12:18;5.25;;;3.10;;
78402;SDS011;67687;43.508;1.504;2023-04-25T17:14:45;7.18;;;4.13;;
78402;SDS011;67687;43.508;1.504;2023-04-25T17:17:12;8.00;;;4.80;;
78402;SDS011;67687;43.508;1.504;2023-04-25T17:19:38;6.72;;;3.90;;
78402;SDS011;67687;43.508;1.504;2023-04-25T17:22:05;5.33;;;3.27;;
78402;SDS011;67687;43.508;1.504;2023-04-25T17:24:32;5.65;;;3.88;;
78402;SDS011;67687;43.508;1.504;2023-04-25T17:26:59;5.55;;;3.75;;
78402;SDS011;67687;43.508;1.504;2023-04-25T17:29:27;7.60;;;4.55;;
78402;SDS011;67687;43.508;1.504;2023-04-25T17:31:53;6.93;;;3.80;;
78402;SDS011;67687;43.508;1.504;2023-04-25T17:34:21;5.63;;;3.67;;
78402;SDS011;67687;43.508;1.504;2023-04-25T17:36:47;5.60;;;3.35;;
78402;SDS011;67687;43.508;1.504;2023-04-25T17:39:14;6.32;;;4.05;;
78402;SDS011;67687;43.508;1.504;2023-04-25T17:41:41;5.35;;;3.67;;
78402;SDS011;67687;43.508;1.504;2023-04-25T17:44:08;8.32;;;5.18;;
78402;SDS011;67687;43.508;1.504;2023-04-25T17:46:36;7.17;;;4.60;;
78402;SDS011;67687;43.508;1.504;2023-04-25T17:49:03;7.82;;;4.72;;
78402;SDS011;67687;43.508;1.504;2023-04-25T17:51:30;8.82;;;5.95;;
78402;SDS011;67687;43.508;1.504;2023-04-25T17:53:57;8.38;;;6.05;;
78402;SDS011;67687;43.508;1.504;2023-04-25T17:56:23;9.73;;;5.93;;
78402;SDS011;67687;43.508;1.504;2023-04-25T17:58:51;2.80;;;1.30;;
78402;SDS011;67687;43.508;1.504;2023-04-25T18:01:18;4.22;;;1.65;;
78402;SDS011;67687;43.508;1.504;2023-04-25T18:03:46;4.45;;;1.30;;
78402;SDS011;67687;43.508;1.504;2023-04-25T18:06:14;3.08;;;1.10;;
78402;SDS011;67687;43.508;1.504;2023-04-25T18:08:41;2.92;;;1.15;;
78402;SDS011;67687;43.508;1.504;2023-04-25T18:11:08;3.30;;;1.40;;
78402;SDS011;67687;43.508;1.504;2023-04-25T18:13:35;3.67;;;1.58;;
78402;SDS011;67687;43.508;1.504;2023-04-25T18:16:02;4.80;;;1.75;;
78402;SDS011;67687;43.508;1.504;2023-04-25T18:18:30;5.28;;;1.90;;
78402;SDS011;67687;43.508;1.504;2023-04-25T18:21:00;4.35;;;1.85;;
78402;SDS011;67687;43.508;1.504;2023-04-25T18:23:29;3.70;;;2.00;;
78402;SDS011;67687;43.508;1.504;2023-04-25T18:25:58;3.85;;;1.80;;
78402;SDS011;67687;43.508;1.504;2023-04-25T18:28:25;5.38;;;1.80;;
78402;SDS011;67687;43.508;1.504;2023-04-25T18:30:52;4.90;;;2.20;;